sensor_id;sensor_type;location;lat;lon;timestamp;pressure;altitude;pressure_sealevel;temperature;humidity
73651;BME280;61944;52.538;6.108;2023-07-02T00:02:13;100458.00;;;17.51;100.00
73651;BME280;61944;52.538;6.108;2023-07-02T00:04:39;100456.41;;;17.30;100.00
73651;BME280;61944;52.538;6.108;2023-07-02T00:07:05;100452.19;;;17.38;100.00
73651;BME280;61944;52.538;6.108;2023-07-02T00:09:30;100460.03;;;17.50;100.00
73651;BME280;61944;52.538;6.108;2023-07-02T00:11:55;100445.22;;;17.42;100.00
73651;BME280;61944;52.538;6.108;2023-07-02T00:14:21;100453.94;;;17.32;100.00
73651;BME280;61944;52.538;6.108;2023-07-02T00:16:46;100452.13;;;17.21;100.00
73651;BME280;61944;52.538;6.108;2023-07-02T00:19:14;100450.16;;;17.38;100.00
73651;BME280;61944;52.538;6.108;2023-07-02T00:21:40;100451.09;;;17.32;100.00
73651;BME280;61944;52.538;6.108;2023-07-02T00:24:06;100454.09;;;17.44;100.00
73651;BME280;61944;52.538;6.108;2023-07-02T00:26:34;100455.25;;;17.27;100.00
73651;BME280;61944;52.538;6.108;2023-07-02T00:28:59;100459.53;;;17.35;100.00
73651;BME280;61944;52.538;6.108;2023-07-02T00:31:25;100454.00;;;17.28;98.54
73651;BME280;61944;52.538;6.108;2023-07-02T00:33:50;100450.44;;;17.04;96.54
73651;BME280;61944;52.538;6.108;2023-07-02T00:36:19;100459.81;;;17.21;96.76
73651;BME280;61944;52.538;6.108;2023-07-02T00:38:46;100455.00;;;17.18;91.67
73651;BME280;61944;52.538;6.108;2023-07-02T00:41:12;100459.94;;;17.14;90.61
73651;BME280;61944;52.538;6.108;2023-07-02T00:43:38;100442.44;;;16.99;88.67
73651;BME280;61944;52.538;6.108;2023-07-02T00:46:14;100458.28;;;17.16;86.71
73651;BME280;61944;52.538;6.108;2023-07-02T00:48:46;100455.75;;;17.22;85.82
73651;BME280;61944;52.538;6.108;2023-07-02T00:51:15;100453.00;;;17.18;84.48
73651;BME280;61944;52.538;6.108;2023-07-02T00:53:41;100452.47;;;17.23;84.64
73651;BME280;61944;52.538;6.108;2023-07-02T00:56:06;100453.28;;;17.04;83.39
73651;BME280;61944;52.538;6.108;2023-07-02T00:58:37;100442.22;;;17.10;83.82
73651;BME280;61944;52.538;6.108;2023-07-02T01:01:04;100444.56;;;17.15;84.21
73651;BME280;61944;52.538;6.108;2023-07-02T01:03:29;100445.38;;;17.15;83.32
73651;BME280;61944;52.538;6.108;2023-07-02T01:05:58;100440.97;;;17.14;85.09
73651;BME280;61944;52.538;6.108;2023-07-02T01:08:24;100438.25;;;17.07;85.62
73651;BME280;61944;52.538;6.108;2023-07-02T01:10:50;100441.06;;;17.07;85.48
73651;BME280;61944;52.538;6.108;2023-07-02T01:13:19;100444.78;;;17.04;85.73
73651;BME280;61944;52.538;6.108;2023-07-02T01:15:45;100442.59;;;16.92;86.19
73651;BME280;61944;52.538;6.108;2023-07-02T01:18:14;100436.63;;;16.62;85.70
73651;BME280;61944;52.538;6.108;2023-07-02T01:20:40;100453.22;;;16.84;86.21
73651;BME280;61944;52.538;6.108;2023-07-02T01:23:06;100459.69;;;16.84;85.69
73651;BME280;61944;52.538;6.108;2023-07-02T01:25:32;100462.81;;;16.90;85.69
73651;BME280;61944;52.538;6.108;2023-07-02T01:28:02;100449.09;;;16.89;85.61
73651;BME280;61944;52.538;6.108;2023-07-02T01:30:27;100456.72;;;16.92;85.05
73651;BME280;61944;52.538;6.108;2023-07-02T01:32:52;100451.53;;;16.63;86.68
73651;BME280;61944;52.538;6.108;2023-07-02T01:35:18;100451.72;;;16.76;85.91
73651;BME280;61944;52.538;6.108;2023-07-02T01:37:44;100461.44;;;16.51;87.22
73651;BME280;61944;52.538;6.108;2023-07-02T01:40:09;100468.75;;;16.72;86.35
73651;BME280;61944;52.538;6.108;2023-07-02T01:42:35;100475.25;;;16.69;86.69
73651;BME280;61944;52.538;6.108;2023-07-02T01:45:00;100469.91;;;16.75;87.06
73651;BME280;61944;52.538;6.108;2023-07-02T01:47:26;100466.34;;;16.71;87.16
73651;BME280;61944;52.538;6.108;2023-07-02T01:49:51;100466.66;;;16.53;88.47
73651;BME280;61944;52.538;6.108;2023-07-02T01:52:17;100474.75;;;16.51;89.03
73651;BME280;61944;52.538;6.108;2023-07-02T01:54:43;100477.22;;;16.49;88.83
73651;BME280;61944;52.538;6.108;2023-07-02T01:57:08;100472.38;;;16.49;88.80
73651;BME280;61944;52.538;6.108;2023-07-02T01:59:34;100465.06;;;16.52;88.90
73651;BME280;61944;52.538;6.108;2023-07-02T02:02:00;100472.28;;;16.53;89.06
73651;BME280;61944;52.538;6.108;2023-07-02T02:04:25;100472.38;;;16.49;88.72
73651;BME280;61944;52.538;6.108;2023-07-02T02:06:51;100471.09;;;16.54;88.46
73651;BME280;61944;52.538;6.108;2023-07-02T02:09:17;100473.09;;;16.30;88.73
73651;BME280;61944;52.538;6.108;2023-07-02T02:11:47;100489.06;;;16.40;89.47
73651;BME280;61944;52.538;6.108;2023-07-02T02:14:13;100478.81;;;16.50;88.27
73651;BME280;61944;52.538;6.108;2023-07-02T02:16:39;100475.63;;;16.48;88.44
73651;BME280;61944;52.538;6.108;2023-07-02T02:19:04;100468.00;;;16.44;88.07
73651;BME280;61944;52.538;6.108;2023-07-02T02:21:30;100471.69;;;16.41;88.06
73651;BME280;61944;52.538;6.108;2023-07-02T02:23:56;100471.34;;;16.36;87.87
73651;BME280;61944;52.538;6.108;2023-07-02T02:26:22;100467.50;;;16.26;88.28
73651;BME280;61944;52.538;6.108;2023-07-02T02:28:48;100480.88;;;16.22;88.38
73651;BME280;61944;52.538;6.108;2023-07-02T02:31:15;100475.25;;;16.18;88.96
73651;BME280;61944;52.538;6.108;2023-07-02T02:33:40;100473.22;;;16.19;88.40
73651;BME280;61944;52.538;6.108;2023-07-02T02:36:06;100476.06;;;16.19;88.24
73651;BME280;61944;52.538;6.108;2023-07-02T02:38:31;100473.59;;;16.21;87.89
73651;BME280;61944;52.538;6.108;2023-07-02T02:40:56;100473.84;;;16.07;88.59
73651;BME280;61944;52.538;6.108;2023-07-02T02:43:22;100476.97;;;16.12;88.65
73651;BME280;61944;52.538;6.108;2023-07-02T02:45:47;100481.81;;;16.12;88.74
73651;BME280;61944;52.538;6.108;2023-07-02T02:48:13;100475.91;;;16.02;88.56
73651;BME280;61944;52.538;6.108;2023-07-02T02:50:38;100492.00;;;16.05;88.22
73651;BME280;61944;52.538;6.108;2023-07-02T02:53:07;100492.38;;;16.08;87.79
73651;BME280;61944;52.538;6.108;2023-07-02T02:55:32;100481.19;;;16.00;87.70
73651;BME280;61944;52.538;6.108;2023-07-02T02:57:58;100487.25;;;15.99;87.93
73651;BME280;61944;52.538;6.108;2023-07-02T03:00:23;100492.56;;;15.93;87.75
73651;BME280;61944;52.538;6.108;2023-07-02T03:02:48;100493.06;;;15.88;88.19
73651;BME280;61944;52.538;6.108;2023-07-02T03:05:14;100497.91;;;15.88;88.24
73651;BME280;61944;52.538;6.108;2023-07-02T03:07:41;100487.41;;;15.88;87.84
73651;BME280;61944;52.538;6.108;2023-07-02T03:10:07;100498.19;;;15.62;88.73
73651;BME280;61944;52.538;6.108;2023-07-02T03:12:32;100503.88;;;15.59;89.04
73651;BME280;61944;52.538;6.108;2023-07-02T03:14:58;100506.66;;;15.62;89.25
73651;BME280;61944;52.538;6.108;2023-07-02T03:17:23;100500.94;;;15.66;88.74
73651;BME280;61944;52.538;6.108;2023-07-02T03:19:49;100500.91;;;15.70;89.02
73651;BME280;61944;52.538;6.108;2023-07-02T03:22:15;100499.75;;;15.67;88.48
73651;BME280;61944;52.538;6.108;2023-07-02T03:24:41;100500.94;;;15.66;88.91
73651;BME280;61944;52.538;6.108;2023-07-02T03:27:06;100508.47;;;15.45;89.79
73651;BME280;61944;52.538;6.108;2023-07-02T03:29:33;100502.25;;;15.58;89.38
73651;BME280;61944;52.538;6.108;2023-07-02T03:31:59;100506.28;;;15.60;89.91
73651;BME280;61944;52.538;6.108;2023-07-02T03:34:24;100505.66;;;15.45;90.15
73651;BME280;61944;52.538;6.108;2023-07-02T03:36:49;100513.28;;;15.45;90.52
73651;BME280;61944;52.538;6.108;2023-07-02T03:39:15;100506.88;;;15.41;90.30
73651;BME280;61944;52.538;6.108;2023-07-02T03:41:41;100518.94;;;15.45;90.67
73651;BME280;61944;52.538;6.108;2023-07-02T03:44:07;100516.09;;;15.45;90.51
73651;BME280;61944;52.538;6.108;2023-07-02T03:46:32;100515.16;;;15.24;92.37
73651;BME280;61944;52.538;6.108;2023-07-02T03:48:58;100510.09;;;15.43;91.13
73651;BME280;61944;52.538;6.108;2023-07-02T03:51:23;100506.81;;;15.48;90.89
73651;BME280;61944;52.538;6.108;2023-07-02T03:53:48;100512.13;;;15.42;91.35
73651;BME280;61944;52.538;6.108;2023-07-02T03:56:14;100525.91;;;15.37;91.66
73651;BME280;61944;52.538;6.108;2023-07-02T03:58:40;100523.16;;;15.26;92.41
73651;BME280;61944;52.538;6.108;2023-07-02T04:01:05;100523.00;;;15.40;91.38
73651;BME280;61944;52.538;6.108;2023-07-02T04:03:31;100527.47;;;15.38;91.98
73651;BME280;61944;52.538;6.108;2023-07-02T04:05:56;100528.63;;;15.44;91.37
73651;BME280;61944;52.538;6.108;2023-07-02T04:08:21;100524.41;;;15.25;92.48
73651;BME280;61944;52.538;6.108;2023-07-02T04:10:47;100525.41;;;15.42;91.79
73651;BME280;61944;52.538;6.108;2023-07-02T04:13:13;100533.22;;;15.31;92.13
73651;BME280;61944;52.538;6.108;2023-07-02T04:15:38;100539.91;;;15.44;91.82
73651;BME280;61944;52.538;6.108;2023-07-02T04:18:03;100545.31;;;15.28;92.52
73651;BME280;61944;52.538;6.108;2023-07-02T04:20:29;100545.00;;;15.18;93.39
73651;BME280;61944;52.538;6.108;2023-07-02T04:22:54;100540.97;;;15.19;93.64
73651;BME280;61944;52.538;6.108;2023-07-02T04:25:20;100538.66;;;15.07;94.73
73651;BME280;61944;52.538;6.108;2023-07-02T04:27:46;100543.34;;;15.24;93.56
73651;BME280;61944;52.538;6.108;2023-07-02T04:30:12;100549.81;;;15.21;93.84
73651;BME280;61944;52.538;6.108;2023-07-02T04:32:38;100546.00;;;14.97;95.56
73651;BME280;61944;52.538;6.108;2023-07-02T04:35:10;100542.47;;;15.31;93.43
73651;BME280;61944;52.538;6.108;2023-07-02T04:37:36;100550.41;;;15.40;93.11
73651;BME280;61944;52.538;6.108;2023-07-02T04:40:02;100546.28;;;15.10;95.24
73651;BME280;61944;52.538;6.108;2023-07-02T04:42:34;100557.88;;;15.19;94.68
73651;BME280;61944;52.538;6.108;2023-07-02T04:45:00;100545.72;;;15.26;93.98
73651;BME280;61944;52.538;6.108;2023-07-02T04:47:29;100550.59;;;15.22;94.04
73651;BME280;61944;52.538;6.108;2023-07-02T04:49:54;100559.31;;;14.97;96.17
73651;BME280;61944;52.538;6.108;2023-07-02T04:52:20;100555.38;;;15.29;94.32
73651;BME280;61944;52.538;6.108;2023-07-02T04:54:45;100561.03;;;15.29;94.18
73651;BME280;61944;52.538;6.108;2023-07-02T04:57:10;100560.59;;;15.30;94.61
73651;BME280;61944;52.538;6.108;2023-07-02T04:59:36;100560.97;;;15.32;94.67
73651;BME280;61944;52.538;6.108;2023-07-02T05:02:01;100558.22;;;15.29;94.85
73651;BME280;61944;52.538;6.108;2023-07-02T05:04:26;100565.91;;;15.21;95.96
73651;BME280;61944;52.538;6.108;2023-07-02T05:06:53;100563.50;;;15.23;96.23
73651;BME280;61944;52.538;6.108;2023-07-02T05:09:18;100561.81;;;15.29;95.80
73651;BME280;61944;52.538;6.108;2023-07-02T05:11:43;100568.19;;;15.37;95.26
73651;BME280;61944;52.538;6.108;2023-07-02T05:14:09;100564.59;;;15.33;95.98
73651;BME280;61944;52.538;6.108;2023-07-02T05:16:34;100568.88;;;15.48;95.00
73651;BME280;61944;52.538;6.108;2023-07-02T05:18:59;100562.88;;;15.42;94.90
73651;BME280;61944;52.538;6.108;2023-07-02T05:21:25;100568.09;;;15.44;95.55
73651;BME280;61944;52.538;6.108;2023-07-02T05:23:50;100573.84;;;15.37;96.21
73651;BME280;61944;52.538;6.108;2023-07-02T05:26:15;100567.19;;;15.54;95.25
73651;BME280;61944;52.538;6.108;2023-07-02T05:28:41;100573.63;;;15.55;95.82
73651;BME280;61944;52.538;6.108;2023-07-02T05:31:06;100572.75;;;15.61;95.08
73651;BME280;61944;52.538;6.108;2023-07-02T05:33:32;100566.28;;;15.27;98.08
73651;BME280;61944;52.538;6.108;2023-07-02T05:35:58;100566.66;;;15.29;98.43
73651;BME280;61944;52.538;6.108;2023-07-02T05:38:23;100568.88;;;15.48;97.05
73651;BME280;61944;52.538;6.108;2023-07-02T05:40:49;100571.44;;;15.70;96.42
73651;BME280;61944;52.538;6.108;2023-07-02T05:43:15;100572.53;;;15.83;95.89
73651;BME280;61944;52.538;6.108;2023-07-02T05:45:40;100577.50;;;15.72;97.18
73651;BME280;61944;52.538;6.108;2023-07-02T05:48:06;100587.31;;;15.56;98.32
73651;BME280;61944;52.538;6.108;2023-07-02T05:50:31;100577.50;;;15.72;97.10
73651;BME280;61944;52.538;6.108;2023-07-02T05:52:56;100580.59;;;15.81;97.04
73651;BME280;61944;52.538;6.108;2023-07-02T05:55:22;100587.53;;;15.76;98.12
73651;BME280;61944;52.538;6.108;2023-07-02T05:57:48;100594.56;;;15.95;97.42
73651;BME280;61944;52.538;6.108;2023-07-02T06:00:14;100595.91;;;15.83;98.40
73651;BME280;61944;52.538;6.108;2023-07-02T06:02:40;100591.03;;;15.88;97.66
73651;BME280;61944;52.538;6.108;2023-07-02T06:05:05;100592.59;;;15.92;97.50
73651;BME280;61944;52.538;6.108;2023-07-02T06:07:31;100598.91;;;16.03;97.22
73651;BME280;61944;52.538;6.108;2023-07-02T06:09:56;100593.91;;;16.15;97.18
73651;BME280;61944;52.538;6.108;2023-07-02T06:12:22;100600.59;;;16.28;96.58
73651;BME280;61944;52.538;6.108;2023-07-02T06:14:47;100604.25;;;16.25;96.08
73651;BME280;61944;52.538;6.108;2023-07-02T06:17:13;100593.03;;;16.21;96.66
73651;BME280;61944;52.538;6.108;2023-07-02T06:19:39;100594.19;;;16.24;97.15
73651;BME280;61944;52.538;6.108;2023-07-02T06:22:04;100599.84;;;16.24;97.72
73651;BME280;61944;52.538;6.108;2023-07-02T06:24:30;100600.75;;;16.17;99.34
73651;BME280;61944;52.538;6.108;2023-07-02T06:26:56;100606.78;;;16.19;99.12
73651;BME280;61944;52.538;6.108;2023-07-02T06:29:22;100610.34;;;16.23;98.37
73651;BME280;61944;52.538;6.108;2023-07-02T06:31:48;100614.88;;;16.17;100.00
73651;BME280;61944;52.538;6.108;2023-07-02T06:34:13;100620.59;;;16.41;97.56
73651;BME280;61944;52.538;6.108;2023-07-02T06:36:39;100618.69;;;16.34;96.45
73651;BME280;61944;52.538;6.108;2023-07-02T06:39:05;100623.00;;;16.42;95.64
73651;BME280;61944;52.538;6.108;2023-07-02T06:41:30;100629.41;;;16.46;95.18
73651;BME280;61944;52.538;6.108;2023-07-02T06:43:55;100611.25;;;16.44;94.02
73651;BME280;61944;52.538;6.108;2023-07-02T06:46:21;100628.97;;;16.48;94.30
73651;BME280;61944;52.538;6.108;2023-07-02T06:48:46;100629.78;;;16.49;94.02
73651;BME280;61944;52.538;6.108;2023-07-02T06:51:12;100632.13;;;16.54;93.66
73651;BME280;61944;52.538;6.108;2023-07-02T06:53:40;100645.47;;;16.53;93.25
73651;BME280;61944;52.538;6.108;2023-07-02T06:56:07;100645.59;;;16.42;92.65
73651;BME280;61944;52.538;6.108;2023-07-02T06:58:33;100634.69;;;16.44;92.38
73651;BME280;61944;52.538;6.108;2023-07-02T07:00:58;100649.91;;;16.51;92.06
73651;BME280;61944;52.538;6.108;2023-07-02T07:03:24;100647.47;;;16.53;91.52
73651;BME280;61944;52.538;6.108;2023-07-02T07:05:49;100652.16;;;16.63;92.12
73651;BME280;61944;52.538;6.108;2023-07-02T07:08:15;100657.72;;;16.70;91.69
73651;BME280;61944;52.538;6.108;2023-07-02T07:10:40;100654.78;;;16.77;91.15
73651;BME280;61944;52.538;6.108;2023-07-02T07:13:06;100664.22;;;16.67;92.23
73651;BME280;61944;52.538;6.108;2023-07-02T07:15:33;100673.16;;;16.65;90.11
73651;BME280;61944;52.538;6.108;2023-07-02T07:17:59;100670.69;;;16.67;89.91
73651;BME280;61944;52.538;6.108;2023-07-02T07:20:25;100667.13;;;16.63;89.79
73651;BME280;61944;52.538;6.108;2023-07-02T07:22:50;100676.47;;;16.57;91.01
73651;BME280;61944;52.538;6.108;2023-07-02T07:25:15;100672.53;;;16.78;90.18
73651;BME280;61944;52.538;6.108;2023-07-02T07:27:41;100677.81;;;16.76;89.92
73651;BME280;61944;52.538;6.108;2023-07-02T07:30:06;100690.78;;;16.73;89.29
73651;BME280;61944;52.538;6.108;2023-07-02T07:32:32;100682.50;;;16.59;90.30
73651;BME280;61944;52.538;6.108;2023-07-02T07:34:57;100683.91;;;16.74;90.00
73651;BME280;61944;52.538;6.108;2023-07-02T07:37:24;100694.13;;;16.64;90.81
73651;BME280;61944;52.538;6.108;2023-07-02T07:39:50;100699.50;;;16.86;89.32
73651;BME280;61944;52.538;6.108;2023-07-02T07:42:16;100695.03;;;16.89;88.61
73651;BME280;61944;52.538;6.108;2023-07-02T07:44:43;100693.81;;;16.90;88.60
73651;BME280;61944;52.538;6.108;2023-07-02T07:47:09;100710.81;;;16.86;86.99
73651;BME280;61944;52.538;6.108;2023-07-02T07:49:34;100702.09;;;16.73;84.74
73651;BME280;61944;52.538;6.108;2023-07-02T07:52:00;100716.56;;;16.79;85.37
73651;BME280;61944;52.538;6.108;2023-07-02T07:54:25;100704.25;;;16.93;83.81
73651;BME280;61944;52.538;6.108;2023-07-02T07:56:51;100710.00;;;16.89;84.87
73651;BME280;61944;52.538;6.108;2023-07-02T07:59:16;100716.16;;;17.07;84.76
73651;BME280;61944;52.538;6.108;2023-07-02T08:01:42;100716.91;;;17.12;83.44
73651;BME280;61944;52.538;6.108;2023-07-02T08:04:07;100711.16;;;17.19;83.25
73651;BME280;61944;52.538;6.108;2023-07-02T08:06:32;100711.41;;;17.28;82.89
73651;BME280;61944;52.538;6.108;2023-07-02T08:08:58;100710.00;;;17.16;82.16
73651;BME280;61944;52.538;6.108;2023-07-02T08:11:23;100709.03;;;17.50;80.93
73651;BME280;61944;52.538;6.108;2023-07-02T08:13:50;100709.31;;;17.32;81.52
73651;BME280;61944;52.538;6.108;2023-07-02T08:16:16;100718.03;;;17.92;90.00
73651;BME280;61944;52.538;6.108;2023-07-02T08:18:42;100714.38;;;18.15;79.18
73651;BME280;61944;52.538;6.108;2023-07-02T08:21:08;100720.69;;;18.43;80.45
73651;BME280;61944;52.538;6.108;2023-07-02T08:23:34;100718.97;;;18.49;79.86
73651;BME280;61944;52.538;6.108;2023-07-02T08:26:00;100711.81;;;18.61;80.10
73651;BME280;61944;52.538;6.108;2023-07-02T08:28:25;100714.56;;;18.84;76.38
73651;BME280;61944;52.538;6.108;2023-07-02T08:30:51;100709.25;;;18.66;79.59
73651;BME280;61944;52.538;6.108;2023-07-02T08:33:16;100716.47;;;18.51;79.90
73651;BME280;61944;52.538;6.108;2023-07-02T08:35:41;100724.31;;;18.43;79.60
73651;BME280;61944;52.538;6.108;2023-07-02T08:38:07;100720.53;;;18.70;79.67
73651;BME280;61944;52.538;6.108;2023-07-02T08:40:33;100717.94;;;18.79;76.98
73651;BME280;61944;52.538;6.108;2023-07-02T08:42:58;100717.47;;;18.61;72.93
73651;BME280;61944;52.538;6.108;2023-07-02T08:45:24;100727.44;;;18.89;74.53
73651;BME280;61944;52.538;6.108;2023-07-02T08:47:50;100725.63;;;19.15;71.87
73651;BME280;61944;52.538;6.108;2023-07-02T08:50:18;100734.47;;;18.61;70.79
73651;BME280;61944;52.538;6.108;2023-07-02T08:52:44;100733.53;;;18.87;74.47
73651;BME280;61944;52.538;6.108;2023-07-02T08:55:10;100734.41;;;18.84;72.25
73651;BME280;61944;52.538;6.108;2023-07-02T08:57:36;100735.06;;;18.72;74.01
73651;BME280;61944;52.538;6.108;2023-07-02T09:00:08;100746.88;;;19.07;70.15
73651;BME280;61944;52.538;6.108;2023-07-02T09:02:34;100747.72;;;18.47;70.88
73651;BME280;61944;52.538;6.108;2023-07-02T09:05:01;100746.78;;;18.34;74.69
73651;BME280;61944;52.538;6.108;2023-07-02T09:07:26;100746.44;;;18.08;77.07
73651;BME280;61944;52.538;6.108;2023-07-02T09:09:52;100758.75;;;18.22;71.37
73651;BME280;61944;52.538;6.108;2023-07-02T09:12:30;100757.16;;;18.61;73.19
73651;BME280;61944;52.538;6.108;2023-07-02T09:15:06;100766.41;;;18.45;71.57
73651;BME280;61944;52.538;6.108;2023-07-02T09:17:33;100766.53;;;18.18;71.82
73651;BME280;61944;52.538;6.108;2023-07-02T09:20:01;100771.19;;;18.28;72.37
73651;BME280;61944;52.538;6.108;2023-07-02T09:22:27;100755.69;;;18.13;73.85
73651;BME280;61944;52.538;6.108;2023-07-02T09:24:57;100768.81;;;18.03;74.64
73651;BME280;61944;52.538;6.108;2023-07-02T09:27:39;100774.41;;;18.06;76.81
73651;BME280;61944;52.538;6.108;2023-07-02T09:30:11;100769.09;;;18.52;73.68
73651;BME280;61944;52.538;6.108;2023-07-02T09:32:44;100771.03;;;18.75;71.86
73651;BME280;61944;52.538;6.108;2023-07-02T09:35:10;100763.53;;;19.05;72.10
73651;BME280;61944;52.538;6.108;2023-07-02T09:37:36;100755.06;;;19.21;71.19
73651;BME280;61944;52.538;6.108;2023-07-02T09:40:02;100761.69;;;18.78;69.33
73651;BME280;61944;52.538;6.108;2023-07-02T09:42:33;100754.38;;;19.34;66.74
73651;BME280;61944;52.538;6.108;2023-07-02T09:45:00;100782.91;;;19.10;69.56
73651;BME280;61944;52.538;6.108;2023-07-02T09:47:29;100767.66;;;18.64;68.91
73651;BME280;61944;52.538;6.108;2023-07-02T09:49:58;100766.31;;;18.48;73.47
73651;BME280;61944;52.538;6.108;2023-07-02T09:52:25;100764.69;;;18.27;73.42
73651;BME280;61944;52.538;6.108;2023-07-02T09:54:51;100772.28;;;18.34;74.21
73651;BME280;61944;52.538;6.108;2023-07-02T09:57:16;100771.97;;;18.48;77.43
73651;BME280;61944;52.538;6.108;2023-07-02T09:59:42;100777.72;;;18.25;71.88
73651;BME280;61944;52.538;6.108;2023-07-02T10:02:12;100779.13;;;18.37;74.78
73651;BME280;61944;52.538;6.108;2023-07-02T10:04:45;100774.47;;;18.86;72.00
73651;BME280;61944;52.538;6.108;2023-07-02T10:07:11;100787.97;;;19.19;71.18
73651;BME280;61944;52.538;6.108;2023-07-02T10:12:27;100792.25;;;19.27;70.45
73651;BME280;61944;52.538;6.108;2023-07-02T10:14:59;100798.72;;;19.07;73.36
73651;BME280;61944;52.538;6.108;2023-07-02T10:17:32;100792.47;;;19.16;74.15
73651;BME280;61944;52.538;6.108;2023-07-02T10:20:05;100791.31;;;19.14;75.32
73651;BME280;61944;52.538;6.108;2023-07-02T10:22:42;100798.59;;;18.95;74.39
73651;BME280;61944;52.538;6.108;2023-07-02T10:25:08;100790.63;;;18.89;75.16
73651;BME280;61944;52.538;6.108;2023-07-02T10:27:41;100799.56;;;19.08;76.28
73651;BME280;61944;52.538;6.108;2023-07-02T10:30:09;100801.91;;;18.93;71.49
73651;BME280;61944;52.538;6.108;2023-07-02T10:32:36;100815.63;;;18.95;72.27
73651;BME280;61944;52.538;6.108;2023-07-02T10:35:23;100797.63;;;19.21;72.71
73651;BME280;61944;52.538;6.108;2023-07-02T10:37:50;100795.47;;;19.09;72.68
73651;BME280;61944;52.538;6.108;2023-07-02T10:40:16;100796.06;;;19.00;73.80
73651;BME280;61944;52.538;6.108;2023-07-02T10:42:48;100807.00;;;19.18;71.94
73651;BME280;61944;52.538;6.108;2023-07-02T10:45:14;100802.13;;;19.55;72.26
73651;BME280;61944;52.538;6.108;2023-07-02T10:47:40;100805.78;;;19.72;71.88
73651;BME280;61944;52.538;6.108;2023-07-02T10:50:19;100804.94;;;19.39;72.24
73651;BME280;61944;52.538;6.108;2023-07-02T10:52:46;100804.69;;;19.49;65.71
73651;BME280;61944;52.538;6.108;2023-07-02T10:55:25;100808.84;;;19.08;67.14
73651;BME280;61944;52.538;6.108;2023-07-02T10:58:02;100809.06;;;19.70;69.56
73651;BME280;61944;52.538;6.108;2023-07-02T11:00:29;100806.69;;;19.85;62.54
73651;BME280;61944;52.538;6.108;2023-07-02T11:02:55;100804.09;;;19.75;69.00
73651;BME280;61944;52.538;6.108;2023-07-02T11:05:20;100802.97;;;19.72;64.79
73651;BME280;61944;52.538;6.108;2023-07-02T11:07:46;100808.66;;;19.36;63.81
73651;BME280;61944;52.538;6.108;2023-07-02T11:10:20;100819.56;;;19.37;64.60
73651;BME280;61944;52.538;6.108;2023-07-02T11:12:45;100825.94;;;19.41;65.60
73651;BME280;61944;52.538;6.108;2023-07-02T11:15:12;100819.66;;;19.50;65.14
73651;BME280;61944;52.538;6.108;2023-07-02T11:17:38;100826.13;;;19.87;65.45
73651;BME280;61944;52.538;6.108;2023-07-02T11:20:11;100825.69;;;19.88;61.48
73651;BME280;61944;52.538;6.108;2023-07-02T11:22:38;100821.31;;;20.00;65.14
73651;BME280;61944;52.538;6.108;2023-07-02T11:25:17;100829.19;;;19.23;65.91
73651;BME280;61944;52.538;6.108;2023-07-02T11:27:44;100836.28;;;19.15;66.34
73651;BME280;61944;52.538;6.108;2023-07-02T11:30:10;100835.91;;;19.49;65.76
73651;BME280;61944;52.538;6.108;2023-07-02T11:32:50;100818.16;;;19.29;64.60
73651;BME280;61944;52.538;6.108;2023-07-02T11:35:16;100825.47;;;19.26;67.06
73651;BME280;61944;52.538;6.108;2023-07-02T11:37:43;100830.41;;;19.06;66.12
73651;BME280;61944;52.538;6.108;2023-07-02T11:40:09;100829.16;;;19.07;66.41
73651;BME280;61944;52.538;6.108;2023-07-02T11:42:37;100832.22;;;18.96;60.98
73651;BME280;61944;52.538;6.108;2023-07-02T11:45:03;100831.41;;;19.68;61.49
73651;BME280;61944;52.538;6.108;2023-07-02T11:47:28;100836.38;;;19.48;61.82
73651;BME280;61944;52.538;6.108;2023-07-02T11:49:54;100850.78;;;19.37;63.78
73651;BME280;61944;52.538;6.108;2023-07-02T11:52:20;100846.91;;;19.47;63.64
73651;BME280;61944;52.538;6.108;2023-07-02T11:54:46;100841.75;;;19.79;59.42
73651;BME280;61944;52.538;6.108;2023-07-02T11:57:12;100847.25;;;19.86;62.71
73651;BME280;61944;52.538;6.108;2023-07-02T11:59:37;100845.56;;;19.36;60.36
73651;BME280;61944;52.538;6.108;2023-07-02T12:02:03;100853.03;;;19.46;62.80
73651;BME280;61944;52.538;6.108;2023-07-02T12:04:28;100857.19;;;20.27;59.93
73651;BME280;61944;52.538;6.108;2023-07-02T12:06:54;100852.47;;;20.20;58.03
73651;BME280;61944;52.538;6.108;2023-07-02T12:09:19;100846.38;;;20.05;61.26
73651;BME280;61944;52.538;6.108;2023-07-02T12:11:45;100855.19;;;20.40;57.88
73651;BME280;61944;52.538;6.108;2023-07-02T12:14:11;100856.94;;;20.96;55.14
73651;BME280;61944;52.538;6.108;2023-07-02T12:16:36;100873.94;;;21.13;48.84
73651;BME280;61944;52.538;6.108;2023-07-02T12:19:02;100858.00;;;21.15;50.12
73651;BME280;61944;52.538;6.108;2023-07-02T12:21:27;100862.25;;;20.81;53.68
73651;BME280;61944;52.538;6.108;2023-07-02T12:23:52;100873.34;;;21.05;53.19
73651;BME280;61944;52.538;6.108;2023-07-02T12:26:18;100865.69;;;20.27;50.56
73651;BME280;61944;52.538;6.108;2023-07-02T12:28:43;100868.47;;;20.30;56.66
73651;BME280;61944;52.538;6.108;2023-07-02T12:31:09;100871.38;;;20.10;56.36
73651;BME280;61944;52.538;6.108;2023-07-02T12:33:35;100855.66;;;19.89;56.00
73651;BME280;61944;52.538;6.108;2023-07-02T12:36:00;100870.66;;;19.90;56.88
73651;BME280;61944;52.538;6.108;2023-07-02T12:38:28;100881.59;;;20.24;57.08
73651;BME280;61944;52.538;6.108;2023-07-02T12:40:54;100881.09;;;20.75;58.69
73651;BME280;61944;52.538;6.108;2023-07-02T12:43:19;100879.16;;;20.56;58.83
73651;BME280;61944;52.538;6.108;2023-07-02T12:45:45;100868.91;;;20.29;60.67
73651;BME280;61944;52.538;6.108;2023-07-02T12:48:11;100888.69;;;20.95;55.69
73651;BME280;61944;52.538;6.108;2023-07-02T12:50:37;100881.28;;;20.97;58.51